Time;durP1;ratioP1;P1;durP2;ratioP2;P2;SDS_P1;SDS_P2;PMS_P1;PMS_P2;Temp;Humidity;BMP_temperature;BMP_pressure;BME280_temperature;BME280_humidity;BME280_pressure;Samples;Min_cycle;Max_cycle;Signal;HPM_P1;HPM_P2
2023/01/23 00:01:18;;;;;;;9.40;7.05;;;;;;;;;;5062188;28;20024;-47
2023/01/23 00:03:43;;;;;;;10.10;7.00;;;;;;;;;;5063756;28;20064;-46
2023/01/23 00:06:14;;;;;;;7.95;6.80;;;;;;;;;;5066004;28;20028;-44
2023/01/23 00:08:41;;;;;;;9.15;7.13;;;;;;;;;;5062334;28;20097;-44
2023/01/23 00:11:09;;;;;;;8.63;6.70;;;;;;;;;;5064402;28;20028;-46
2023/01/23 00:13:35;;;;;;;8.85;6.90;;;;;;;;;;5059792;28;20041;-46
2023/01/23 00:16:09;;;;;;;11.55;7.32;;;;;;;;;;5063821;28;20347;-51
2023/01/23 00:18:34;;;;;;;7.68;6.25;;;;;;;;;;5063712;28;20097;-49
2023/01/23 00:21:08;;;;;;;8.18;6.28;;;;;;;;;;5064448;28;20111;-47
2023/01/23 00:23:34;;;;;;;8.35;6.70;;;;;;;;;;5063835;28;20492;-43
2023/01/23 00:26:04;;;;;;;7.28;6.50;;;;;;;;;;5063952;28;20035;-47
2023/01/23 00:28:30;;;;;;;6.72;6.03;;;;;;;;;;5061191;28;20029;-42
2023/01/23 00:31:04;;;;;;;7.90;6.22;;;;;;;;;;5063237;28;20397;-47
2023/01/23 00:33:29;;;;;;;9.27;7.50;;;;;;;;;;5064458;28;20044;-43
2023/01/23 00:35:54;;;;;;;7.00;6.32;;;;;;;;;;5063400;28;20099;-44
2023/01/23 00:38:20;;;;;;;7.22;6.50;;;;;;;;;;5058527;28;20052;-42
2023/01/23 00:40:45;;;;;;;10.05;7.05;;;;;;;;;;5061198;28;20029;-45
2023/01/23 00:43:11;;;;;;;9.02;6.75;;;;;;;;;;5063393;28;20501;-44
2023/01/23 00:45:37;;;;;;;8.35;6.53;;;;;;;;;;5064989;28;20694;-42
2023/01/23 00:48:03;;;;;;;8.18;6.82;;;;;;;;;;5061506;28;20047;-45
2023/01/23 00:50:28;;;;;;;9.23;6.57;;;;;;;;;;5062395;28;20053;-45
2023/01/23 00:52:54;;;;;;;8.70;7.07;;;;;;;;;;5063280;28;20131;-46
2023/01/23 00:55:19;;;;;;;11.50;6.93;;;;;;;;;;5063920;28;20095;-45
2023/01/23 00:57:44;;;;;;;9.20;7.10;;;;;;;;;;5062869;28;20068;-44
2023/01/23 01:00:10;;;;;;;8.65;6.65;;;;;;;;;;5058263;28;20029;-46
2023/01/23 01:02:36;;;;;;;13.02;6.97;;;;;;;;;;5064345;28;20033;-43
2023/01/23 01:05:01;;;;;;;8.50;6.65;;;;;;;;;;5064681;28;20020;-44
2023/01/23 01:07:26;;;;;;;10.50;7.40;;;;;;;;;;5064004;28;20029;-45
2023/01/23 01:09:52;;;;;;;7.38;6.63;;;;;;;;;;5063022;28;20032;-44
2023/01/23 01:12:18;;;;;;;9.20;6.68;;;;;;;;;;5062727;28;20029;-47
2023/01/23 01:14:43;;;;;;;9.35;7.43;;;;;;;;;;5060866;28;20396;-45
2023/01/23 01:17:09;;;;;;;8.40;7.47;;;;;;;;;;5063528;28;20036;-44
2023/01/23 01:19:35;;;;;;;12.35;7.80;;;;;;;;;;5062941;28;20189;-43
2023/01/23 01:22:00;;;;;;;9.10;7.82;;;;;;;;;;5062531;28;20025;-42
2023/01/23 01:24:26;;;;;;;11.27;7.65;;;;;;;;;;5063107;28;20035;-45
2023/01/23 01:26:52;;;;;;;8.43;7.10;;;;;;;;;;5063894;28;20101;-42
2023/01/23 01:29:17;;;;;;;9.32;7.35;;;;;;;;;;5066267;28;20037;-48
2023/01/23 01:31:43;;;;;;;8.73;6.90;;;;;;;;;;5065009;28;20089;-44
2023/01/23 01:34:08;;;;;;;12.02;7.53;;;;;;;;;;5065119;28;20512;-44
2023/01/23 01:36:33;;;;;;;11.63;7.85;;;;;;;;;;5061054;28;20025;-44
2023/01/23 01:38:59;;;;;;;9.52;7.47;;;;;;;;;;5066580;28;20579;-42
2023/01/23 01:41:24;;;;;;;8.00;6.65;;;;;;;;;;5065011;28;20034;-44
2023/01/23 01:43:52;;;;;;;8.63;6.68;;;;;;;;;;5065279;28;20443;-46
2023/01/23 01:46:27;;;;;;;7.30;6.60;;;;;;;;;;5048797;28;20062;-45
2023/01/23 01:49:06;;;;;;;9.13;7.50;;;;;;;;;;5065330;28;20408;-42
2023/01/23 01:51:38;;;;;;;7.55;6.35;;;;;;;;;;5067540;28;20051;-48
2023/01/23 01:54:27;;;;;;;9.70;6.32;;;;;;;;;;5067589;28;20052;-42
2023/01/23 01:57:07;;;;;;;8.25;6.55;;;;;;;;;;5066564;28;20472;-43
2023/01/23 01:59:38;;;;;;;8.82;6.30;;;;;;;;;;5063396;28;20052;-43
2023/01/23 02:02:10;;;;;;;8.68;6.60;;;;;;;;;;5064527;28;20060;-47
2023/01/23 02:04:39;;;;;;;9.43;6.90;;;;;;;;;;5065853;28;20810;-44
2023/01/23 02:07:10;;;;;;;8.00;6.70;;;;;;;;;;5067205;28;20753;-43
2023/01/23 02:09:37;;;;;;;10.27;6.80;;;;;;;;;;5066246;28;20190;-46
2023/01/23 02:12:03;;;;;;;8.57;6.57;;;;;;;;;;5065683;28;20499;-42
2023/01/23 02:14:29;;;;;;;8.90;6.70;;;;;;;;;;5063518;28;20048;-44
2023/01/23 02:16:59;;;;;;;6.90;5.82;;;;;;;;;;5066994;28;20488;-43
2023/01/23 02:19:41;;;;;;;8.98;6.90;;;;;;;;;;5067122;28;20109;-45
2023/01/23 02:22:25;;;;;;;;;;;;;;;;;;5064768;28;20036;-43
2023/01/23 02:24:57;;;;;;;6.80;5.82;;;;;;;;;;5064520;28;19928;-45
2023/01/23 02:27:22;;;;;;;8.75;6.53;;;;;;;;;;5059741;28;20029;-43
2023/01/23 02:29:50;;;;;;;7.35;6.57;;;;;;;;;;5063643;28;20033;-46
2023/01/23 02:32:18;;;;;;;7.32;6.18;;;;;;;;;;5064265;28;20045;-51
2023/01/23 02:34:44;;;;;;;9.13;7.22;;;;;;;;;;5067367;28;20028;-46
2023/01/23 02:37:10;;;;;;;9.35;6.93;;;;;;;;;;5065670;28;20025;-45
2023/01/23 02:39:36;;;;;;;8.20;6.78;;;;;;;;;;5063504;28;20401;-47
2023/01/23 02:42:02;;;;;;;6.75;6.15;;;;;;;;;;5064497;28;20183;-44
2023/01/23 02:44:32;;;;;;;8.57;7.25;;;;;;;;;;5066220;28;20127;-42
2023/01/23 02:47:06;;;;;;;7.90;6.40;;;;;;;;;;5063229;28;20036;-41
2023/01/23 02:49:32;;;;;;;8.77;6.82;;;;;;;;;;5048298;28;20070;-46
2023/01/23 02:51:57;;;;;;;7.43;6.65;;;;;;;;;;5061665;28;20099;-48
2023/01/23 02:54:23;;;;;;;7.78;6.53;;;;;;;;;;5047136;28;20043;-45
2023/01/23 02:56:49;;;;;;;8.57;6.50;;;;;;;;;;5063518;28;20028;-43
2023/01/23 03:01:59;;;;;;;8.45;6.55;;;;;;;;;;5062117;28;20031;-46
2023/01/23 03:04:24;;;;;;;8.65;7.03;;;;;;;;;;5048301;28;20036;-45
2023/01/23 03:06:49;;;;;;;8.52;6.95;;;;;;;;;;5066137;28;20035;-42
2023/01/23 03:09:16;;;;;;;9.38;7.15;;;;;;;;;;5064591;28;20043;-45
2023/01/23 03:11:44;;;;;;;8.35;6.65;;;;;;;;;;5066121;28;20103;-44
2023/01/23 03:14:12;;;;;;;7.53;6.43;;;;;;;;;;5063642;28;20202;-44
2023/01/23 03:16:37;;;;;;;7.47;6.50;;;;;;;;;;5064467;28;20033;-44
2023/01/23 03:19:07;;;;;;;8.88;7.03;;;;;;;;;;5065569;28;20527;-48
2023/01/23 03:21:33;;;;;;;7.10;6.40;;;;;;;;;;5065007;28;20040;-44
2023/01/23 03:23:58;;;;;;;7.72;6.47;;;;;;;;;;5067104;28;20484;-45
2023/01/23 03:26:24;;;;;;;6.50;5.82;;;;;;;;;;5064941;28;20046;-42
2023/01/23 03:31:33;;;;;;;8.98;7.00;;;;;;;;;;5065074;28;20067;-44
2023/01/23 03:33:59;;;;;;;9.00;6.93;;;;;;;;;;5064464;28;20037;-42
2023/01/23 03:36:24;;;;;;;9.88;6.88;;;;;;;;;;5063921;28;20119;-45
2023/01/23 03:41:35;;;;;;;7.68;6.43;;;;;;;;;;5063813;28;20146;-41
2023/01/23 03:44:00;;;;;;;8.90;7.00;;;;;;;;;;5063371;28;20028;-44
2023/01/23 03:46:25;;;;;;;9.07;6.72;;;;;;;;;;5067122;28;20028;-45
2023/01/23 03:48:51;;;;;;;7.10;5.93;;;;;;;;;;5063814;28;20554;-44
2023/01/23 03:51:16;;;;;;;7.45;6.63;;;;;;;;;;5063296;28;20025;-42
2023/01/23 03:53:42;;;;;;;8.05;6.43;;;;;;;;;;5063198;28;20036;-44
2023/01/23 03:56:07;;;;;;;9.07;7.55;;;;;;;;;;5065341;28;20436;-45
2023/01/23 03:58:32;;;;;;;7.90;7.13;;;;;;;;;;5064005;28;20413;-41
2023/01/23 04:01:02;;;;;;;7.38;6.57;;;;;;;;;;5064632;28;20032;-42
2023/01/23 04:03:27;;;;;;;7.75;6.70;;;;;;;;;;5060963;28;20044;-48
2023/01/23 04:05:57;;;;;;;7.93;6.63;;;;;;;;;;5065573;28;20476;-44
2023/01/23 04:08:23;;;;;;;9.10;7.40;;;;;;;;;;5064334;28;20043;-46
2023/01/23 04:10:48;;;;;;;8.52;7.30;;;;;;;;;;5064632;28;20024;-42
2023/01/23 04:13:14;;;;;;;7.93;7.07;;;;;;;;;;5059816;28;20508;-45
2023/01/23 04:15:39;;;;;;;8.43;7.05;;;;;;;;;;5066380;28;20021;-42
2023/01/23 04:18:04;;;;;;;7.82;6.85;;;;;;;;;;5062503;28;20098;-45
2023/01/23 04:20:30;;;;;;;8.90;6.90;;;;;;;;;;5066208;28;20040;-44
2023/01/23 04:22:55;;;;;;;8.43;6.47;;;;;;;;;;5062091;28;20037;-42
2023/01/23 04:25:21;;;;;;;9.10;6.82;;;;;;;;;;5061069;28;20016;-42
2023/01/23 04:27:46;;;;;;;8.02;6.65;;;;;;;;;;5065062;28;20045;-42
2023/01/23 04:30:12;;;;;;;9.48;6.78;;;;;;;;;;5064978;28;20035;-42
2023/01/23 04:32:37;;;;;;;7.80;6.97;;;;;;;;;;5062426;28;20041;-43
2023/01/23 04:35:03;;;;;;;9.90;6.85;;;;;;;;;;5063612;28;20024;-45
2023/01/23 04:37:28;;;;;;;11.15;7.60;;;;;;;;;;5063246;28;20039;-41
2023/01/23 04:39:54;;;;;;;8.50;7.25;;;;;;;;;;5061800;28;20025;-45
2023/01/23 04:42:19;;;;;;;9.25;7.63;;;;;;;;;;5061110;28;20534;-42
2023/01/23 04:44:45;;;;;;;8.27;7.40;;;;;;;;;;5063108;28;20035;-47
2023/01/23 04:47:10;;;;;;;9.68;7.38;;;;;;;;;;5060476;28;20045;-38
2023/01/23 04:49:36;;;;;;;10.95;7.22;;;;;;;;;;5065578;28;20044;-46
2023/01/23 04:52:01;;;;;;;9.50;7.47;;;;;;;;;;5064293;28;20103;-43
2023/01/23 04:54:26;;;;;;;8.18;7.25;;;;;;;;;;5060980;28;20136;-45
2023/01/23 04:56:52;;;;;;;11.82;9.10;;;;;;;;;;5063504;28;20016;-42
2023/01/23 04:59:17;;;;;;;10.40;7.68;;;;;;;;;;5064863;28;20123;-42
2023/01/23 05:01:44;;;;;;;11.68;8.32;;;;;;;;;;5065705;28;20021;-45
2023/01/23 05:04:09;;;;;;;8.57;7.65;;;;;;;;;;5065559;28;20064;-44
2023/01/23 05:06:35;;;;;;;10.98;8.20;;;;;;;;;;5070743;28;21869;-44
2023/01/23 05:09:00;;;;;;;11.73;8.75;;;;;;;;;;5063891;28;20127;-44
2023/01/23 05:11:26;;;;;;;8.77;7.53;;;;;;;;;;5067718;28;20035;-45
2023/01/23 05:13:51;;;;;;;11.07;7.70;;;;;;;;;;5065181;28;20040;-46
2023/01/23 05:16:16;;;;;;;9.68;7.70;;;;;;;;;;5068681;28;20044;-44
2023/01/23 05:18:42;;;;;;;8.35;6.95;;;;;;;;;;5068147;28;20060;-44
2023/01/23 05:21:07;;;;;;;10.63;7.75;;;;;;;;;;5067371;28;20063;-46
2023/01/23 05:23:33;;;;;;;8.52;7.20;;;;;;;;;;5061061;28;20701;-45
2023/01/23 05:25:58;;;;;;;7.93;7.07;;;;;;;;;;5066918;28;20028;-47
2023/01/23 05:28:24;;;;;;;9.02;7.38;;;;;;;;;;5065572;28;20037;-44
2023/01/23 05:30:49;;;;;;;13.88;7.85;;;;;;;;;;5065841;28;20120;-44
2023/01/23 05:33:14;;;;;;;12.85;8.57;;;;;;;;;;5060842;28;23029;-43
2023/01/23 05:35:40;;;;;;;12.75;10.45;;;;;;;;;;5069183;28;20024;-44
2023/01/23 05:38:06;;;;;;;16.33;13.13;;;;;;;;;;5061561;28;20049;-45
2023/01/23 05:40:32;;;;;;;19.80;15.38;;;;;;;;;;5065998;28;20035;-44
2023/01/23 05:42:57;;;;;;;26.50;18.33;;;;;;;;;;5067150;28;20056;-45
2023/01/23 05:45:22;;;;;;;26.33;17.70;;;;;;;;;;5068933;28;20028;-44
2023/01/23 05:47:48;;;;;;;24.58;18.05;;;;;;;;;;5063082;28;20397;-48
2023/01/23 05:50:17;;;;;;;19.80;15.10;;;;;;;;;;5062749;28;20519;-44
2023/01/23 05:52:42;;;;;;;18.38;13.90;;;;;;;;;;5066438;28;20036;-43
2023/01/23 05:55:08;;;;;;;12.05;10.25;;;;;;;;;;5057613;28;20090;-44
2023/01/23 05:57:34;;;;;;;12.20;9.25;;;;;;;;;;5063890;28;20037;-43
2023/01/23 05:59:59;;;;;;;12.85;10.00;;;;;;;;;;5056767;28;20025;-45
2023/01/23 06:02:25;;;;;;;11.85;9.77;;;;;;;;;;5058236;28;20031;-48
2023/01/23 06:04:50;;;;;;;10.45;8.90;;;;;;;;;;5059205;28;20024;-44
2023/01/23 06:07:18;;;;;;;10.25;9.13;;;;;;;;;;5058667;28;20477;-44
2023/01/23 06:09:43;;;;;;;11.75;8.63;;;;;;;;;;5064418;28;20048;-42
2023/01/23 06:12:10;;;;;;;10.85;7.65;;;;;;;;;;5046304;28;20489;-42
2023/01/23 06:14:35;;;;;;;12.35;8.57;;;;;;;;;;5057838;28;20071;-43
2023/01/23 06:17:01;;;;;;;18.20;10.07;;;;;;;;;;5063087;28;20126;-44
2023/01/23 06:19:26;;;;;;;18.98;12.32;;;;;;;;;;5061720;28;20083;-45
2023/01/23 06:21:52;;;;;;;16.48;11.20;;;;;;;;;;5068706;28;20113;-42
2023/01/23 06:24:17;;;;;;;20.33;12.50;;;;;;;;;;5065523;28;20587;-42
2023/01/23 06:26:43;;;;;;;25.58;12.50;;;;;;;;;;5063955;28;20041;-43
2023/01/23 06:29:08;;;;;;;23.02;12.43;;;;;;;;;;5061722;28;20507;-43
2023/01/23 06:31:33;;;;;;;22.75;13.85;;;;;;;;;;5065430;28;20056;-44
2023/01/23 06:33:59;;;;;;;26.65;15.73;;;;;;;;;;5061594;28;20045;-46
2023/01/23 06:36:25;;;;;;;28.58;16.40;;;;;;;;;;5059743;28;20040;-46
2023/01/23 06:38:50;;;;;;;23.67;14.18;;;;;;;;;;5062021;28;20041;-42
2023/01/23 06:41:16;;;;;;;21.42;13.90;;;;;;;;;;5062059;28;20040;-44
2023/01/23 06:43:41;;;;;;;23.02;14.35;;;;;;;;;;5061500;28;20129;-46
2023/01/23 06:46:08;;;;;;;19.05;12.93;;;;;;;;;;5062528;28;20048;-43
2023/01/23 06:48:34;;;;;;;16.25;11.02;;;;;;;;;;5045784;28;20037;-47
2023/01/23 06:51:00;;;;;;;14.07;10.77;;;;;;;;;;5065106;28;20033;-45
2023/01/23 06:53:26;;;;;;;10.20;8.95;;;;;;;;;;5062279;28;20044;-43
2023/01/23 06:55:51;;;;;;;20.17;15.05;;;;;;;;;;5057716;28;20033;-45
2023/01/23 06:58:17;;;;;;;16.23;10.70;;;;;;;;;;5061629;28;20896;-44
2023/01/23 07:00:43;;;;;;;17.52;10.93;;;;;;;;;;5065074;28;20120;-42
2023/01/23 07:03:10;;;;;;;19.13;11.45;;;;;;;;;;5064807;28;20504;-45
2023/01/23 07:05:42;;;;;;;22.75;14.02;;;;;;;;;;5061449;28;20657;-42
2023/01/23 07:08:08;;;;;;;20.15;12.93;;;;;;;;;;5056500;28;20068;-44
2023/01/23 07:10:37;;;;;;;23.70;14.77;;;;;;;;;;5058367;28;20044;-43
2023/01/23 07:13:07;;;;;;;16.70;11.95;;;;;;;;;;5054613;28;20045;-45
2023/01/23 07:15:33;;;;;;;63.15;27.40;;;;;;;;;;5062683;28;20051;-42
2023/01/23 07:17:59;;;;;;;28.42;15.05;;;;;;;;;;5057414;28;20090;-43
2023/01/23 07:20:27;;;;;;;23.92;15.43;;;;;;;;;;5062852;28;21028;-45
2023/01/23 07:22:56;;;;;;;22.25;15.05;;;;;;;;;;5063283;28;20032;-42
2023/01/23 07:25:23;;;;;;;26.67;16.50;;;;;;;;;;5061239;28;20036;-44
2023/01/23 07:27:49;;;;;;;24.83;16.15;;;;;;;;;;5065564;28;20041;-42
2023/01/23 07:30:16;;;;;;;25.38;16.42;;;;;;;;;;5060750;28;20040;-45
2023/01/23 07:32:41;;;;;;;25.38;16.38;;;;;;;;;;5059594;28;20043;-49
2023/01/23 07:35:07;;;;;;;21.17;14.00;;;;;;;;;;5064843;28;20029;-47
2023/01/23 07:37:33;;;;;;;18.73;13.70;;;;;;;;;;5059092;28;20143;-47
2023/01/23 07:39:58;;;;;;;21.95;15.00;;;;;;;;;;5066072;28;20112;-44
2023/01/23 07:42:24;;;;;;;22.02;14.07;;;;;;;;;;5060172;28;20090;-46
2023/01/23 07:44:49;;;;;;;22.17;14.60;;;;;;;;;;5060077;28;20036;-44
2023/01/23 07:47:14;;;;;;;21.38;14.85;;;;;;;;;;5057736;28;20040;-44
2023/01/23 07:49:40;;;;;;;22.17;13.95;;;;;;;;;;5057831;28;20025;-47
2023/01/23 07:52:05;;;;;;;18.60;11.52;;;;;;;;;;5059082;28;20032;-44
2023/01/23 07:54:31;;;;;;;17.15;11.23;;;;;;;;;;5061478;28;20071;-45
2023/01/23 07:56:56;;;;;;;15.55;12.40;;;;;;;;;;5066779;28;20119;-47
2023/01/23 07:59:21;;;;;;;16.52;11.73;;;;;;;;;;5063659;28;20047;-47
2023/01/23 08:01:48;;;;;;;15.60;12.00;;;;;;;;;;5060710;28;20040;-48
2023/01/23 08:04:13;;;;;;;13.85;11.00;;;;;;;;;;5062817;28;20052;-44
2023/01/23 08:06:39;;;;;;;13.38;10.10;;;;;;;;;;5064899;28;20408;-44
2023/01/23 08:09:04;;;;;;;21.02;15.05;;;;;;;;;;5062754;28;20128;-45
2023/01/23 08:11:30;;;;;;;20.85;12.27;;;;;;;;;;5057642;28;20041;-48
2023/01/23 08:13:55;;;;;;;46.33;21.63;;;;;;;;;;5058807;28;20154;-43
2023/01/23 08:16:20;;;;;;;40.58;20.48;;;;;;;;;;5059834;28;20089;-45
2023/01/23 08:18:46;;;;;;;31.98;19.67;;;;;;;;;;5061260;28;20090;-47
2023/01/23 08:21:11;;;;;;;13.00;10.45;;;;;;;;;;5059271;28;20035;-44
2023/01/23 08:23:37;;;;;;;12.68;9.20;;;;;;;;;;5063120;28;20135;-48
2023/01/23 08:26:06;;;;;;;14.32;10.27;;;;;;;;;;5058276;28;20653;-44
2023/01/23 08:28:32;;;;;;;27.42;17.92;;;;;;;;;;5064891;28;20060;-44
2023/01/23 08:31:03;;;;;;;23.13;15.63;;;;;;;;;;5060590;28;20488;-44
2023/01/23 08:33:28;;;;;;;35.15;22.17;;;;;;;;;;5061660;28;20434;-44
2023/01/23 08:35:56;;;;;;;30.55;19.33;;;;;;;;;;5058970;28;20077;-45
2023/01/23 08:38:22;;;;;;;32.92;21.05;;;;;;;;;;5058511;28;20064;-45
2023/01/23 08:40:49;;;;;;;26.75;17.48;;;;;;;;;;5064189;28;20075;-45
2023/01/23 08:43:15;;;;;;;17.58;12.10;;;;;;;;;;5061086;28;20086;-46
2023/01/23 08:45:52;;;;;;;13.10;9.18;;;;;;;;;;5062062;28;20385;-44
2023/01/23 08:48:18;;;;;;;10.75;8.20;;;;;;;;;;5058835;28;20076;-43
2023/01/23 08:50:44;;;;;;;17.00;11.23;;;;;;;;;;5047003;28;20028;-44
2023/01/23 08:53:11;;;;;;;18.10;11.35;;;;;;;;;;5056281;28;20052;-45
2023/01/23 08:55:37;;;;;;;15.15;10.27;;;;;;;;;;5056403;28;20477;-44
2023/01/23 08:58:04;;;;;;;19.85;11.40;;;;;;;;;;5058624;28;20523;-47
2023/01/23 09:00:29;;;;;;;25.02;10.38;;;;;;;;;;5056299;28;20668;-45
2023/01/23 09:02:58;;;;;;;10.85;8.30;;;;;;;;;;5056854;28;20076;-45
2023/01/23 09:05:24;;;;;;;13.52;9.10;;;;;;;;;;5062043;28;20751;-47
2023/01/23 09:07:49;;;;;;;11.02;8.38;;;;;;;;;;5065102;28;20051;-45
2023/01/23 09:10:15;;;;;;;15.13;9.77;;;;;;;;;;5059166;28;20106;-46
2023/01/23 09:12:41;;;;;;;14.20;9.93;;;;;;;;;;5055002;28;20041;-45
2023/01/23 09:15:07;;;;;;;12.40;9.32;;;;;;;;;;5059504;28;20021;-48
2023/01/23 09:17:33;;;;;;;15.70;12.18;;;;;;;;;;5058801;28;20512;-45
2023/01/23 09:19:59;;;;;;;20.05;11.65;;;;;;;;;;5057004;28;20060;-47
2023/01/23 09:22:25;;;;;;;17.02;11.25;;;;;;;;;;5060765;28;20103;-44
2023/01/23 09:24:50;;;;;;;15.00;11.30;;;;;;;;;;5058623;28;20143;-44
2023/01/23 09:27:16;;;;;;;17.50;11.57;;;;;;;;;;5061895;28;20127;-48
2023/01/23 09:29:41;;;;;;;15.10;10.10;;;;;;;;;;5060928;28;20066;-47
2023/01/23 09:32:06;;;;;;;16.00;10.23;;;;;;;;;;5063837;28;20055;-46
2023/01/23 09:34:32;;;;;;;14.85;10.63;;;;;;;;;;5062275;28;20552;-47
2023/01/23 09:36:57;;;;;;;19.65;10.50;;;;;;;;;;5058589;28;20059;-47
2023/01/23 09:39:22;;;;;;;18.23;10.43;;;;;;;;;;5062101;28;20452;-45
2023/01/23 09:41:48;;;;;;;14.00;9.32;;;;;;;;;;5060640;28;20061;-46
2023/01/23 09:44:40;;;;;;;9.82;6.88;;;;;;;;;;5061402;28;20412;-44
2023/01/23 09:47:17;;;;;;;8.77;6.82;;;;;;;;;;5061515;28;20032;-45
2023/01/23 09:50:03;;;;;;;20.23;9.90;;;;;;;;;;5060236;28;20500;-46
2023/01/23 09:52:34;;;;;;;23.88;12.00;;;;;;;;;;5065950;28;20040;-47
2023/01/23 09:55:12;;;;;;;17.40;9.25;;;;;;;;;;5068898;28;20044;-45
2023/01/23 09:57:59;;;;;;;18.60;10.55;;;;;;;;;;5062300;28;20044;-52
2023/01/23 10:00:30;;;;;;;21.50;12.18;;;;;;;;;;5067160;28;20040;-43
2023/01/23 10:02:58;;;;;;;18.67;12.05;;;;;;;;;;5067530;28;20029;-44
2023/01/23 10:05:44;;;;;;;14.55;9.02;;;;;;;;;;5057796;28;20052;-45
2023/01/23 10:08:37;;;;;;;11.68;8.77;;;;;;;;;;5063259;28;20033;-43
2023/01/23 10:11:12;;;;;;;13.73;9.60;;;;;;;;;;5059291;28;20044;-45
2023/01/23 10:14:05;;;;;;;12.13;9.18;;;;;;;;;;5061152;28;20104;-45
2023/01/23 10:16:36;;;;;;;14.65;9.48;;;;;;;;;;5065912;28;20096;-44
2023/01/23 10:19:43;;;;;;;19.15;12.07;;;;;;;;;;5062053;28;20052;-43
2023/01/23 10:22:28;;;;;;;11.98;8.30;;;;;;;;;;5061538;28;20032;-47
2023/01/23 10:24:56;;;;;;;10.20;8.23;;;;;;;;;;5067342;28;20124;-44
2023/01/23 10:27:37;;;;;;;10.15;8.13;;;;;;;;;;5058322;28;20472;-44
2023/01/23 10:30:24;;;;;;;14.25;8.98;;;;;;;;;;5061346;28;20641;-45
2023/01/23 10:32:55;;;;;;;15.85;9.27;;;;;;;;;;5056543;28;20044;-46
2023/01/23 10:35:38;;;;;;;9.63;7.50;;;;;;;;;;5060081;28;20481;-44
2023/01/23 10:38:35;;;;;;;8.38;6.75;;;;;;;;;;5058649;28;20489;-45
2023/01/23 10:41:13;;;;;;;10.27;7.28;;;;;;;;;;5022032;28;20394;-45
2023/01/23 10:43:51;;;;;;;8.95;6.55;;;;;;;;;;5015043;28;20046;-44
2023/01/23 10:46:19;;;;;;;13.07;7.13;;;;;;;;;;5017268;28;20017;-46
2023/01/23 10:48:47;;;;;;;13.02;8.43;;;;;;;;;;5017875;28;20490;-45
2023/01/23 10:51:33;;;;;;;8.20;6.85;;;;;;;;;;5020758;28;20045;-44
2023/01/23 10:54:08;;;;;;;13.13;7.43;;;;;;;;;;5019444;28;20042;-46
2023/01/23 10:56:36;;;;;;;9.40;6.97;;;;;;;;;;5004607;28;20500;-46
2023/01/23 10:59:04;;;;;;;9.70;7.70;;;;;;;;;;5020409;28;20038;-47
2023/01/23 11:01:34;;;;;;;11.27;7.00;;;;;;;;;;5013715;28;20037;-47
2023/01/23 11:04:17;;;;;;;7.95;5.90;;;;;;;;;;5016635;28;20048;-44
2023/01/23 11:06:42;;;;;;;;;;;;;;;;;;5015347;28;20030;-47
2023/01/23 11:09:19;;;;;;;10.32;8.07;;;;;;;;;;5017969;28;19952;-45
2023/01/23 11:12:13;;;;;;;13.02;7.40;;;;;;;;;;5000317;28;20030;-43
2023/01/23 11:14:38;;;;;;;10.32;7.95;;;;;;;;;;5014197;28;20092;-44
2023/01/23 11:17:21;;;;;;;11.63;8.60;;;;;;;;;;5045368;28;20042;-46
2023/01/23 11:19:49;;;;;;;9.63;7.00;;;;;;;;;;5061014;28;20047;-43
2023/01/23 11:22:30;;;;;;;12.63;8.30;;;;;;;;;;5056536;28;20037;-45
2023/01/23 11:24:56;;;;;;;8.43;6.88;;;;;;;;;;5060706;28;20074;-44
2023/01/23 11:27:26;;;;;;;10.55;7.25;;;;;;;;;;5061974;28;20029;-47
2023/01/23 11:30:07;;;;;;;13.05;7.55;;;;;;;;;;5063631;28;20808;-45
2023/01/23 11:32:41;;;;;;;7.95;7.00;;;;;;;;;;5054978;28;20044;-47
2023/01/23 11:35:15;;;;;;;9.02;7.57;;;;;;;;;;5056901;28;20032;-44
2023/01/23 11:37:41;;;;;;;8.45;6.78;;;;;;;;;;5055114;28;20045;-46
2023/01/23 11:40:11;;;;;;;8.68;7.35;;;;;;;;;;5058738;28;20035;-44
2023/01/23 11:42:40;;;;;;;8.48;7.32;;;;;;;;;;5064432;28;20132;-45
2023/01/23 11:45:17;;;;;;;10.57;9.48;;;;;;;;;;5055302;28;20027;-45
2023/01/23 11:48:15;;;;;;;7.97;7.15;;;;;;;;;;5058199;28;20127;-48
2023/01/23 11:50:46;;;;;;;7.35;6.20;;;;;;;;;;5057508;28;20029;-45
2023/01/23 11:53:20;;;;;;;9.15;7.45;;;;;;;;;;5056382;28;20434;-48
2023/01/23 11:55:54;;;;;;;9.50;7.68;;;;;;;;;;5055599;28;20028;-46
2023/01/23 11:58:35;;;;;;;8.00;6.55;;;;;;;;;;5057308;28;20964;-50
2023/01/23 12:01:14;;;;;;;8.55;6.80;;;;;;;;;;5058998;28;20147;-46
2023/01/23 12:03:55;;;;;;;8.13;6.40;;;;;;;;;;5063369;28;20079;-49
2023/01/23 12:06:33;;;;;;;8.05;6.72;;;;;;;;;;5060627;28;20143;-44
2023/01/23 12:09:09;;;;;;;7.72;6.43;;;;;;;;;;5062076;28;20075;-50
2023/01/23 12:11:54;;;;;;;5.90;5.15;;;;;;;;;;5058147;28;20069;-45
2023/01/23 12:14:30;;;;;;;7.40;6.30;;;;;;;;;;5055171;28;20044;-50
2023/01/23 12:17:32;;;;;;;8.95;6.18;;;;;;;;;;5059906;28;20021;-45
2023/01/23 12:20:16;;;;;;;6.88;6.28;;;;;;;;;;4981400;28;20062;-45
2023/01/23 12:22:47;;;;;;;7.97;6.50;;;;;;;;;;4977366;28;20045;-47
2023/01/23 12:25:34;;;;;;;15.45;7.68;;;;;;;;;;4987729;28;20034;-44
2023/01/23 12:28:19;;;;;;;7.20;6.15;;;;;;;;;;4980251;28;20406;-44
2023/01/23 12:31:26;;;;;;;8.65;6.75;;;;;;;;;;4984669;28;20130;-44
2023/01/23 12:34:19;;;;;;;7.35;6.40;;;;;;;;;;4974149;28;20042;-48
2023/01/23 12:37:09;;;;;;;7.47;6.68;;;;;;;;;;4980024;28;20078;-44
2023/01/23 12:39:55;;;;;;;6.38;5.68;;;;;;;;;;4983829;28;20069;-44
2023/01/23 12:42:28;;;;;;;6.32;5.72;;;;;;;;;;4982145;28;20038;-45
2023/01/23 12:44:58;;;;;;;;;;;;;;;;;;4986449;28;20081;-43
2023/01/23 12:47:46;;;;;;;;;;;;;;;;;;4980132;28;19973;-46
2023/01/23 12:50:30;;;;;;;;;;;;;;;;;;4987249;28;20012;-44
2023/01/23 12:53:03;;;;;;;;;;;;;;;;;;4987019;28;19922;-43
2023/01/23 12:55:47;;;;;;;;;;;;;;;;;;5058182;28;20208;-45
2023/01/23 12:58:14;;;;;;;;;;;;;;;;;;5064660;28;19925;-44
2023/01/23 13:00:52;;;;;;;;;;;;;;;;;;5057806;28;19924;-45
2023/01/23 13:03:17;;;;;;;;;;;;;;;;;;5054915;28;20015;-48
2023/01/23 13:05:50;;;;;;;;;;;;;;;;;;5062279;28;20015;-45
2023/01/23 13:08:33;;;;;;;;;;;;;;;;;;5063612;28;20445;-45
2023/01/23 13:13:49;;;;;;;;;;;;;;;;;;5057567;28;19958;-47
2023/01/23 13:16:15;;;;;;;;;;;;;;;;;;5055955;28;19920;-45
2023/01/23 13:27:46;;;;;;;;;;;;;;;;;;5064725;28;20284;-45
2023/01/23 13:30:30;;;;;;;;;;;;;;;;;;5058839;28;19913;-44
2023/01/23 13:33:00;;;;;;;;;;;;;;;;;;5059516;28;20059;-45
2023/01/23 13:35:37;;;;;;;;;;;;;;;;;;5062306;28;19932;-45
2023/01/23 13:38:28;;;;;;;;;;;;;;;;;;5059243;28;19927;-47
2023/01/23 13:41:17;;;;;;;;;;;;;;;;;;5062785;28;20665;-45
2023/01/23 13:43:48;;;;;;;;;;;;;;;;;;5057263;28;19986;-47
2023/01/23 13:46:32;;;;;;;;;;;;;;;;;;5060470;28;19912;-43
2023/01/23 13:51:45;;;;;;;;;;;;;;;;;;5060196;28;19922;-42
2023/01/23 13:56:56;;;;;;;;;;;;;;;;;;5062029;28;19928;-47
2023/01/23 13:59:40;;;;;;;;;;;;;;;;;;5062525;28;19917;-45
2023/01/23 14:05:13;;;;;;;;;;;;;;;;;;5064675;28;19927;-44
2023/01/23 14:07:42;;;;;;;;;;;;;;;;;;5056031;28;19923;-46
2023/01/23 14:10:16;;;;;;;;;;;;;;;;;;5044318;28;20362;-47
2023/01/23 14:12:42;;;;;;;;;;;;;;;;;;5061622;28;19920;-45
2023/01/23 14:18:12;;;;;;;;;;;;;;;;;;5058148;28;19927;-49
2023/01/23 14:20:38;;;;;;;;;;;;;;;;;;5060062;28;19916;-44
2023/01/23 14:23:05;;;;;;;;;;;;;;;;;;5063127;28;19924;-44
2023/01/23 14:25:31;;;;;;;;;;;;;;;;;;5060497;28;19912;-46
2023/01/23 14:28:01;;;;;;;;;;;;;;;;;;5062539;28;19921;-44
2023/01/23 14:30:29;;;;;;;;;;;;;;;;;;5059159;28;19917;-46
2023/01/23 14:32:54;;;;;;;;;;;;;;;;;;5063354;28;20427;-45
2023/01/23 14:35:28;;;;;;;;;;;;;;;;;;5058979;28;19921;-43
2023/01/23 14:37:54;;;;;;;;;;;;;;;;;;5064696;28;19954;-46
2023/01/23 14:40:20;;;;;;;;;;;;;;;;;;5058010;28;19921;-45
2023/01/23 14:42:52;;;;;;;;;;;;;;;;;;5062118;28;19931;-47
2023/01/23 14:45:17;;;;;;;;;;;;;;;;;;5056495;28;19924;-47
2023/01/23 14:47:43;;;;;;;;;;;;;;;;;;5059791;28;19924;-44
2023/01/23 14:50:10;;;;;;;;;;;;;;;;;;5065202;28;20008;-44
2023/01/23 14:52:35;;;;;;;;;;;;;;;;;;5064393;28;19928;-44
2023/01/23 14:55:01;;;;;;;;;;;;;;;;;;5060977;28;19916;-47
2023/01/23 14:57:27;;;;;;;;;;;;;;;;;;5068178;28;20737;-44
2023/01/23 14:59:56;;;;;;;;;;;;;;;;;;5058204;28;19917;-46
2023/01/23 15:02:34;;;;;;;;;;;;;;;;;;5058740;28;19920;-45
2023/01/23 15:05:12;;;;;;;;;;;;;;;;;;5055360;28;19939;-45
2023/01/23 15:07:43;;;;;;;;;;;;;;;;;;5066678;28;19939;-45
2023/01/23 15:10:27;;;;;;;;;;;;;;;;;;5060062;28;19925;-44
2023/01/23 15:13:03;;;;;;;;;;;;;;;;;;5058209;28;19944;-43
2023/01/23 15:15:30;;;;;;;;;;;;;;;;;;5061192;28;19916;-44
2023/01/23 15:17:56;;;;;;;;;;;;;;;;;;5056034;28;19963;-43
2023/01/23 15:20:37;;;;;;;;;;;;;;;;;;5061948;28;20369;-46
2023/01/23 15:23:17;;;;;;;;;;;;;;;;;;5058239;28;19924;-44
2023/01/23 15:25:43;;;;;;;;;;;;;;;;;;5065059;28;19946;-44
2023/01/23 15:28:27;;;;;;;;;;;;;;;;;;5062481;28;19928;-46
2023/01/23 15:30:52;;;;;;;;;;;;;;;;;;5062488;28;20050;-50
2023/01/23 15:33:22;;;;;;;;;;;;;;;;;;5061352;28;20007;-47
2023/01/23 15:35:48;;;;;;;;;;;;;;;;;;5064221;28;19920;-44
2023/01/23 15:38:16;;;;;;;;;;;;;;;;;;5059278;28;19928;-45
2023/01/23 15:40:42;;;;;;;;;;;;;;;;;;5061310;28;20015;-44